createdAt,value
2018-06-05T00:00:26.880Z,9.08
2018-06-05T00:02:55.220Z,7.55
2018-06-05T00:05:23.601Z,7.97
2018-06-05T00:07:51.940Z,8.80
2018-06-05T00:10:20.388Z,8.40
2018-06-05T00:12:48.828Z,7.53
2018-06-05T00:15:17.178Z,8.00
2018-06-05T00:17:46.949Z,6.47
2018-06-05T00:20:15.334Z,8.05
2018-06-05T00:22:43.678Z,8.10
2018-06-05T00:25:12.527Z,9.88
2018-06-05T00:27:40.851Z,7.78
2018-06-05T00:30:09.262Z,7.83
2018-06-05T00:32:37.293Z,8.28
2018-06-05T00:35:05.643Z,8.38
2018-06-05T00:37:34.010Z,9.68
2018-06-05T00:40:02.400Z,9.70
2018-06-05T00:42:30.767Z,8.88
2018-06-05T00:44:59.119Z,8.70
2018-06-05T00:47:27.515Z,8.60
2018-06-05T00:49:55.878Z,8.05
2018-06-05T00:52:24.233Z,8.93
2018-06-05T00:54:52.606Z,8.30
2018-06-05T00:57:20.997Z,8.48
2018-06-05T00:59:49.352Z,9.45
2018-06-05T01:02:17.746Z,9.23
2018-06-05T01:04:46.055Z,8.50
2018-06-05T01:07:14.416Z,8.98
2018-06-05T01:09:42.747Z,9.88
2018-06-05T01:12:11.106Z,9.38
2018-06-05T01:14:39.431Z,9.33
2018-06-05T01:17:07.796Z,9.25
2018-06-05T01:19:36.145Z,8.88
2018-06-05T01:22:04.522Z,8.95
2018-06-05T01:24:32.845Z,8.80
2018-06-05T01:27:01.244Z,10.65
2018-06-05T01:29:29.587Z,9.10
2018-06-05T01:31:57.944Z,9.55
2018-06-05T01:34:26.275Z,9.53
2018-06-05T01:36:54.627Z,10.88
2018-06-05T01:39:22.958Z,10.43
2018-06-05T01:41:51.313Z,10.08
2018-06-05T01:44:19.726Z,12.03
2018-06-05T01:46:48.094Z,10.72
2018-06-05T01:49:16.446Z,10.60
2018-06-05T01:51:44.782Z,10.55
2018-06-05T01:54:13.142Z,9.88
2018-06-05T01:56:41.447Z,11.90
2018-06-05T01:59:09.830Z,10.30
2018-06-05T02:01:38.208Z,11.95
2018-06-05T02:04:06.666Z,9.88
2018-06-05T02:06:35.031Z,12.23
2018-06-05T02:09:04.125Z,10.58
2018-06-05T02:11:32.496Z,13.08
2018-06-05T02:14:00.984Z,11.65
2018-06-05T02:16:29.378Z,11.70
2018-06-05T02:18:57.787Z,11.15
2018-06-05T02:21:26.215Z,10.43
2018-06-05T02:23:54.616Z,10.10
2018-06-05T02:26:22.993Z,13.05
2018-06-05T02:28:51.386Z,13.50
2018-06-05T02:31:19.772Z,13.28
2018-06-05T02:33:48.164Z,11.75
2018-06-05T02:36:16.613Z,12.50
2018-06-05T02:38:45.046Z,12.90
2018-06-05T02:41:13.650Z,11.43
2018-06-05T02:43:42.049Z,12.15
2018-06-05T02:46:10.452Z,13.20
2018-06-05T02:48:38.919Z,12.28
2018-06-05T02:51:07.317Z,12.43
2018-06-05T02:53:35.755Z,10.85
2018-06-05T02:56:04.235Z,11.75
2018-06-05T02:58:32.607Z,14.78
2018-06-05T03:01:01.006Z,14.47
2018-06-05T03:03:29.448Z,15.55
2018-06-05T03:05:57.518Z,11.95
2018-06-05T03:08:25.933Z,12.68
2018-06-05T03:10:54.277Z,15.20
2018-06-05T03:13:22.770Z,14.38
2018-06-05T03:15:51.245Z,16.30
2018-06-05T03:18:19.661Z,15.05
2018-06-05T03:20:48.018Z,13.35
2018-06-05T03:23:16.398Z,14.93
2018-06-05T03:25:44.777Z,13.75
2018-06-05T03:28:13.168Z,13.45
2018-06-05T03:30:41.522Z,14.35
2018-06-05T03:33:09.858Z,14.90
2018-06-05T03:35:38.219Z,15.88
2018-06-05T03:38:06.584Z,15.05
2018-06-05T03:40:34.998Z,15.78
2018-06-05T03:43:03.350Z,15.05
2018-06-05T03:45:32.083Z,15.53
2018-06-05T03:48:00.622Z,15.37
2018-06-05T03:50:29.020Z,14.50
2018-06-05T03:52:57.378Z,14.28
2018-06-05T03:55:25.785Z,15.67
2018-06-05T03:57:54.157Z,15.48
2018-06-05T04:00:23.078Z,15.53
2018-06-05T04:02:51.465Z,16.20
2018-06-05T04:05:19.925Z,14.43
2018-06-05T04:07:48.267Z,15.20
2018-06-05T04:10:16.715Z,14.95
2018-06-05T04:12:45.089Z,14.60
2018-06-05T04:15:13.803Z,10.80
2018-06-05T04:17:42.161Z,15.15
2018-06-05T04:20:10.551Z,13.95
2018-06-05T04:22:38.927Z,14.58
2018-06-05T04:25:07.354Z,14.03
2018-06-05T04:27:35.789Z,13.53
2018-06-05T04:30:04.250Z,13.75
2018-06-05T04:32:32.322Z,14.73
2018-06-05T04:35:00.690Z,14.30
2018-06-05T04:37:29.030Z,15.95
2018-06-05T04:39:57.409Z,14.63
2018-06-05T04:42:25.841Z,14.28
2018-06-05T04:44:54.250Z,13.28
2018-06-05T04:49:57.364Z,13.78
2018-06-05T04:52:25.729Z,14.90
2018-06-05T04:54:54.286Z,14.50
2018-06-05T04:57:22.694Z,17.17
2018-06-05T04:59:51.645Z,14.63
2018-06-05T05:02:20.071Z,15.03
2018-06-05T05:04:48.694Z,15.18
2018-06-05T05:07:16.837Z,16.40
2018-06-05T05:09:45.244Z,14.95
2018-06-05T05:12:13.630Z,16.27
2018-06-05T05:14:42.041Z,14.73
2018-06-05T05:17:10.423Z,14.15
2018-06-05T05:19:38.854Z,14.15
2018-06-05T05:22:07.313Z,15.78
2018-06-05T05:24:35.482Z,13.90
2018-06-05T05:27:03.932Z,14.35
2018-06-05T05:29:32.359Z,15.32
2018-06-05T05:32:00.770Z,13.00
2018-06-05T05:34:29.518Z,12.68
2018-06-05T05:36:57.913Z,12.33
2018-06-05T05:39:26.281Z,11.20
2018-06-05T05:41:54.720Z,10.78
2018-06-05T05:44:23.122Z,11.35
2018-06-05T05:46:51.598Z,10.65
2018-06-05T05:49:20.024Z,11.15
2018-06-05T05:51:48.529Z,13.03
2018-06-05T05:54:17.667Z,10.70
2018-06-05T05:56:46.078Z,10.88
2018-06-05T05:59:14.451Z,11.33
2018-06-05T06:01:42.825Z,13.98
2018-06-05T06:04:11.229Z,11.83
2018-06-05T06:06:39.679Z,11.35
2018-06-05T06:09:08.437Z,12.45
2018-06-05T06:11:36.864Z,13.28
2018-06-05T06:14:04.921Z,15.00
2018-06-05T06:16:33.405Z,11.65
2018-06-05T06:19:01.807Z,11.43
2018-06-05T06:21:30.301Z,12.23
2018-06-05T06:23:58.645Z,13.78
2018-06-05T06:26:27.047Z,11.43
2018-06-05T06:28:56.075Z,14.25
2018-06-05T06:31:24.509Z,10.80
2018-06-05T06:33:52.898Z,12.85
2018-06-05T06:36:21.358Z,11.22
2018-06-05T06:38:49.845Z,12.70
2018-06-05T06:41:18.268Z,12.23
2018-06-05T06:43:46.646Z,18.17
2018-06-05T06:46:14.995Z,13.65
2018-06-05T06:48:43.480Z,13.38
2018-06-05T06:51:11.824Z,11.48
2018-06-05T06:53:40.220Z,13.75
2018-06-05T06:56:08.652Z,11.73
2018-06-05T06:58:37.122Z,10.95
2018-06-05T07:01:05.527Z,11.22
2018-06-05T07:03:33.959Z,12.40
2018-06-05T07:06:02.378Z,11.10
2018-06-05T07:08:30.806Z,10.50
2018-06-05T07:10:59.202Z,9.60
2018-06-05T07:13:27.641Z,10.70
2018-06-05T07:15:56.121Z,11.00
2018-06-05T07:18:24.530Z,10.50
2018-06-05T07:20:52.942Z,10.85
2018-06-05T07:23:21.429Z,13.80
2018-06-05T07:25:49.813Z,12.40
2018-06-05T07:28:18.323Z,10.75
2018-06-05T07:30:46.783Z,11.03
2018-06-05T07:33:15.242Z,11.70
2018-06-05T07:35:43.781Z,10.48
2018-06-05T07:38:12.208Z,10.35
2018-06-05T07:40:40.692Z,11.95
2018-06-05T07:43:09.092Z,12.53
2018-06-05T07:45:38.194Z,10.58
2018-06-05T07:48:06.826Z,11.68
2018-06-05T07:50:35.344Z,11.03
2018-06-05T07:53:03.769Z,11.48
2018-06-05T07:55:32.206Z,12.78
2018-06-05T07:58:00.617Z,11.18
2018-06-05T08:00:29.026Z,12.00
2018-06-05T08:02:57.387Z,12.70
2018-06-05T08:05:25.755Z,10.25
2018-06-05T08:07:54.150Z,11.35
2018-06-05T08:10:22.584Z,10.32
2018-06-05T08:12:50.937Z,11.00
2018-06-05T08:15:19.343Z,13.20
2018-06-05T08:17:47.781Z,11.35
2018-06-05T08:20:16.207Z,13.00
2018-06-05T08:22:55.562Z,10.58
2018-06-05T08:25:23.987Z,11.43
2018-06-05T08:27:52.548Z,10.93
2018-06-05T08:30:21.053Z,10.38
2018-06-05T08:32:49.503Z,10.75
2018-06-05T08:35:18.406Z,10.95
2018-06-05T08:37:46.826Z,10.58
2018-06-05T08:40:15.231Z,13.13
2018-06-05T08:42:43.588Z,12.00
2018-06-05T08:45:11.972Z,11.45
2018-06-05T08:47:40.498Z,14.05
2018-06-05T08:50:08.951Z,10.43
2018-06-05T08:52:37.334Z,11.18
2018-06-05T08:55:06.368Z,11.30
2018-06-05T08:57:34.803Z,11.65
2018-06-05T09:00:03.265Z,11.00
2018-06-05T09:02:31.661Z,11.35
2018-06-05T09:05:00.126Z,13.10
2018-06-05T09:07:28.506Z,10.53
2018-06-05T09:09:56.919Z,12.25
2018-06-05T09:12:25.262Z,13.13
2018-06-05T09:14:53.655Z,10.50
2018-06-05T09:17:22.196Z,11.93
2018-06-05T09:19:50.613Z,11.33
2018-06-05T09:22:18.998Z,9.35
2018-06-05T09:24:47.442Z,11.78
2018-06-05T09:27:15.813Z,12.13
2018-06-05T09:29:44.183Z,11.00
2018-06-05T09:32:12.597Z,11.33
2018-06-05T09:34:40.753Z,12.15
2018-06-05T09:37:09.204Z,10.18
2018-06-05T09:39:37.829Z,10.03
2018-06-05T09:42:06.279Z,11.70
2018-06-05T09:44:34.667Z,12.95
2018-06-05T09:47:03.069Z,11.68
2018-06-05T09:49:31.664Z,10.15
2018-06-05T09:52:00.101Z,11.65
2018-06-05T09:54:28.561Z,10.38
2018-06-05T09:56:56.965Z,10.72
2018-06-05T09:59:25.412Z,9.93
2018-06-05T10:01:53.933Z,15.48
2018-06-05T10:04:22.310Z,10.95
2018-06-05T10:06:50.714Z,10.15
2018-06-05T10:09:25.514Z,10.85
2018-06-05T10:11:53.940Z,11.08
2018-06-05T10:14:22.381Z,8.98
2018-06-05T10:16:50.794Z,10.20
2018-06-05T10:19:19.454Z,9.40
2018-06-05T10:21:47.871Z,10.45
2018-06-05T10:24:16.251Z,9.03
2018-06-05T10:26:44.653Z,11.20
2018-06-05T10:29:13.288Z,9.30
2018-06-05T10:31:41.741Z,8.85
2018-06-05T10:34:10.120Z,9.28
2018-06-05T10:36:38.577Z,9.95
2018-06-05T10:39:07.978Z,7.90
2018-06-05T10:41:36.470Z,9.58
2018-06-05T10:44:05.054Z,10.20
2018-06-05T10:46:33.514Z,7.75
2018-06-05T10:49:01.897Z,7.42
2018-06-05T10:51:30.347Z,8.75
2018-06-05T10:53:59.784Z,7.80
2018-06-05T10:56:34.972Z,9.00
2018-06-05T10:59:03.254Z,10.35
2018-06-05T11:01:31.688Z,9.30
2018-06-05T11:04:00.134Z,7.72
2018-06-05T11:06:28.606Z,7.58
2018-06-05T11:08:57.031Z,7.83
2018-06-05T11:11:25.448Z,9.78
2018-06-05T11:13:53.878Z,10.10
2018-06-05T11:16:23.322Z,9.63
2018-06-05T11:18:51.704Z,10.30
2018-06-05T11:21:20.287Z,8.25
2018-06-05T11:23:48.849Z,8.23
2018-06-05T11:26:17.268Z,8.43
2018-06-05T11:28:45.891Z,8.10
2018-06-05T11:31:14.344Z,15.15
2018-06-05T11:33:42.811Z,8.05
2018-06-05T11:36:11.198Z,7.97
2018-06-05T11:38:39.613Z,8.35
2018-06-05T11:41:08.006Z,6.28
2018-06-05T11:43:36.405Z,6.30
2018-06-05T11:46:05.007Z,5.78
2018-06-05T11:48:33.428Z,7.15
2018-06-05T11:51:01.881Z,8.35
2018-06-05T11:53:30.350Z,7.25
2018-06-05T11:55:58.867Z,8.03
2018-06-05T11:58:27.352Z,12.30
2018-06-05T12:00:55.744Z,9.23
2018-06-05T12:03:24.261Z,8.23
2018-06-05T12:05:52.826Z,6.20
2018-06-05T12:08:21.234Z,5.87
2018-06-05T12:10:49.604Z,6.17
2018-06-05T12:13:18.639Z,6.03
2018-06-05T12:15:47.150Z,8.18
2018-06-05T12:18:15.557Z,8.50
2018-06-05T12:20:44.020Z,6.90
2018-06-05T12:23:12.553Z,7.70
2018-06-05T12:25:41.120Z,7.05
2018-06-05T12:28:09.573Z,6.70
2018-06-05T12:30:38.317Z,6.35
2018-06-05T12:33:06.459Z,4.72
2018-06-05T12:35:34.878Z,4.80
2018-06-05T12:38:03.344Z,5.90
2018-06-05T12:40:31.788Z,7.12
2018-06-05T12:43:00.137Z,5.58
2018-06-05T12:45:28.603Z,5.30
2018-06-05T12:47:57.120Z,4.20
2018-06-05T12:50:25.564Z,4.72
2018-06-05T12:52:53.927Z,5.10
2018-06-05T12:55:22.370Z,5.15
2018-06-05T12:57:50.787Z,7.05
2018-06-05T13:00:19.202Z,4.97
2018-06-05T13:02:47.803Z,4.65
2018-06-05T13:05:16.450Z,4.10
2018-06-05T13:07:44.933Z,5.80
2018-06-05T13:10:13.374Z,4.70
2018-06-05T13:12:41.792Z,3.77
2018-06-05T13:15:10.265Z,4.50
2018-06-05T13:17:38.977Z,6.55
2018-06-05T13:20:07.415Z,8.70
2018-06-05T13:22:35.946Z,7.80
2018-06-05T13:25:04.663Z,10.20
2018-06-05T13:27:34.561Z,6.22
2018-06-05T13:30:05.495Z,6.15
2018-06-05T13:32:35.642Z,5.55
2018-06-05T13:35:05.980Z,7.78
2018-06-05T13:37:36.399Z,11.95
2018-06-05T13:40:06.477Z,9.48
2018-06-05T13:42:36.137Z,6.87
2018-06-05T13:45:04.750Z,7.12
2018-06-05T13:47:33.351Z,8.88
2018-06-05T13:50:01.757Z,13.72
2018-06-05T13:52:30.224Z,9.50
2018-06-05T13:54:58.712Z,7.70
2018-06-05T13:57:27.159Z,5.83
2018-06-05T13:59:55.538Z,6.40
2018-06-05T14:02:25.854Z,5.05
2018-06-05T14:04:54.407Z,4.45
2018-06-05T14:07:22.816Z,5.78
2018-06-05T14:09:51.194Z,5.75
2018-06-05T14:12:19.662Z,5.22
2018-06-05T14:14:49.050Z,5.30
2018-06-05T14:17:17.505Z,5.05
2018-06-05T14:19:52.593Z,3.75
2018-06-05T14:22:20.978Z,5.40
2018-06-05T14:24:49.479Z,3.87
2018-06-05T14:27:17.895Z,4.15
2018-06-05T14:29:46.617Z,4.80
2018-06-05T14:32:15.073Z,3.90
2018-06-05T14:34:43.421Z,5.10
2018-06-05T14:37:11.977Z,5.70
2018-06-05T14:39:40.046Z,6.25
2018-06-05T14:42:08.462Z,6.17
2018-06-05T14:44:36.893Z,6.75
2018-06-05T14:47:05.355Z,4.55
2018-06-05T14:49:33.730Z,4.70
2018-06-05T14:52:02.119Z,7.80
2018-06-05T14:54:30.523Z,6.58
2018-06-05T14:56:58.932Z,5.62
2018-06-05T14:59:27.302Z,4.65
2018-06-05T15:01:55.708Z,5.25
2018-06-05T15:04:24.103Z,4.83
2018-06-05T15:06:52.529Z,5.90
2018-06-05T15:09:20.969Z,4.10
2018-06-05T15:11:49.372Z,4.03
2018-06-05T15:14:17.730Z,4.17
2018-06-05T15:16:46.130Z,7.15
2018-06-05T15:19:14.591Z,9.38
2018-06-05T15:21:43.047Z,5.20
2018-06-05T15:24:11.446Z,4.80
2018-06-05T15:26:39.834Z,4.55
2018-06-05T15:29:08.242Z,13.25
2018-06-05T15:31:36.634Z,7.30
2018-06-05T15:34:05.129Z,6.30
2018-06-05T15:36:33.559Z,4.90
2018-06-05T15:39:01.973Z,8.90
2018-06-05T15:41:30.492Z,10.48
2018-06-05T15:43:58.898Z,5.35
2018-06-05T15:46:27.331Z,9.13
2018-06-05T15:48:55.727Z,5.50
2018-06-05T15:51:24.258Z,7.17
2018-06-05T15:53:52.705Z,6.67
2018-06-05T15:56:21.159Z,6.03
2018-06-05T15:58:50.159Z,9.15
2018-06-05T16:01:19.225Z,6.10
2018-06-05T16:03:47.654Z,7.80
2018-06-05T16:06:16.062Z,6.05
2018-06-05T16:11:19.110Z,10.55
2018-06-05T16:13:47.494Z,15.50
2018-06-05T16:16:15.962Z,9.78
2018-06-05T16:18:44.801Z,5.40
2018-06-05T16:21:13.250Z,6.17
2018-06-05T16:23:41.648Z,7.45
2018-06-05T16:26:10.120Z,12.28
2018-06-05T16:28:38.538Z,12.50
2018-06-05T16:31:13.508Z,8.80
2018-06-05T16:33:41.955Z,7.87
2018-06-05T16:36:10.307Z,8.23
2018-06-05T16:38:38.761Z,5.10
2018-06-05T16:41:07.163Z,5.50
2018-06-05T16:43:35.579Z,11.60
2018-06-05T16:47:33.429Z,9.80
2018-06-05T16:50:01.922Z,8.83
2018-06-05T16:52:30.310Z,7.28
2018-06-05T16:54:58.691Z,6.20
2018-06-05T16:57:27.201Z,6.33
2018-06-05T16:59:55.655Z,7.75
2018-06-05T17:02:24.158Z,9.20
2018-06-05T17:04:52.977Z,8.58
2018-06-05T17:07:21.456Z,6.60
2018-06-05T17:09:49.895Z,7.97
2018-06-05T17:12:18.339Z,9.93
2018-06-05T17:14:46.741Z,10.65
2018-06-05T17:17:15.406Z,12.73
2018-06-05T17:19:43.934Z,14.30
2018-06-05T17:22:12.358Z,8.53
2018-06-05T17:24:40.764Z,9.35
2018-06-05T17:27:09.178Z,6.65
2018-06-05T17:29:37.629Z,7.05
2018-06-05T17:32:06.258Z,8.43
2018-06-05T17:34:34.774Z,7.50
2018-06-05T17:37:03.163Z,7.42
2018-06-05T17:39:31.570Z,10.68
2018-06-05T17:41:59.951Z,6.28
2018-06-05T17:44:28.061Z,6.85
2018-06-05T17:46:56.519Z,6.00
2018-06-05T17:49:24.931Z,11.90
2018-06-05T17:51:53.360Z,16.17
2018-06-05T17:54:21.791Z,18.17
2018-06-05T17:56:50.199Z,11.25
2018-06-05T17:59:18.745Z,22.48
2018-06-05T18:01:47.111Z,20.88
2018-06-05T18:04:15.555Z,24.80
2018-06-05T18:06:43.942Z,21.97
2018-06-05T18:09:12.343Z,16.40
2018-06-05T18:11:40.709Z,10.90
2018-06-05T18:14:09.100Z,24.30
2018-06-05T18:16:37.564Z,16.48
2018-06-05T18:19:05.959Z,18.55
2018-06-05T18:21:34.371Z,20.37
2018-06-05T18:24:02.818Z,12.53
2018-06-05T18:26:31.277Z,13.95
2018-06-05T18:28:59.682Z,13.43
2018-06-05T18:31:28.120Z,10.93
2018-06-05T18:33:56.555Z,17.32
2018-06-05T18:36:24.995Z,18.65
2018-06-05T18:38:53.874Z,15.03
2018-06-05T18:41:22.358Z,14.38
2018-06-05T18:43:50.740Z,13.60
2018-06-05T18:46:19.235Z,19.02
2018-06-05T18:48:47.559Z,15.72
2018-06-05T18:51:15.930Z,15.60
2018-06-05T18:53:44.300Z,16.27
2018-06-05T18:56:12.748Z,11.68
2018-06-05T18:58:41.103Z,13.03
2018-06-05T19:01:09.494Z,15.95
2018-06-05T19:03:37.636Z,17.75
2018-06-05T19:06:06.280Z,14.80
2018-06-05T19:08:34.673Z,23.87
2018-06-05T19:11:03.117Z,20.62
2018-06-05T19:13:31.518Z,12.23
2018-06-05T19:15:59.936Z,21.33
2018-06-05T19:18:28.313Z,26.07
2018-06-05T19:20:56.745Z,19.07
2018-06-05T19:23:25.178Z,19.95
2018-06-05T19:25:53.299Z,10.05
2018-06-05T19:28:21.661Z,25.05
2018-06-05T19:30:50.113Z,16.87
2018-06-05T19:33:18.542Z,17.98
2018-06-05T19:35:46.924Z,28.80
2018-06-05T19:38:15.466Z,23.38
2018-06-05T19:41:47.138Z,21.70
2018-06-05T19:44:15.531Z,20.02
2018-06-05T19:46:44.043Z,12.88
2018-06-05T19:49:12.423Z,9.35
2018-06-05T19:51:40.826Z,9.58
2018-06-05T19:54:09.216Z,7.10
2018-06-05T19:56:37.663Z,7.55
2018-06-05T19:59:06.057Z,16.45
2018-06-05T20:01:34.727Z,21.48
2018-06-05T20:04:03.105Z,12.30
2018-06-05T20:06:31.596Z,7.95
2018-06-05T20:08:59.966Z,11.73
2018-06-05T20:11:28.371Z,11.83
2018-06-05T20:13:56.771Z,9.58
2018-06-05T20:16:25.192Z,10.72
2018-06-05T20:18:53.612Z,10.53
2018-06-05T20:21:22.011Z,8.90
2018-06-05T20:23:50.406Z,8.23
2018-06-05T20:26:18.811Z,8.35
2018-06-05T20:28:47.186Z,10.40
2018-06-05T20:31:15.559Z,8.88
2018-06-05T20:33:43.959Z,9.95
2018-06-05T20:36:12.289Z,10.65
2018-06-05T20:38:40.699Z,14.65
2018-06-05T20:41:09.076Z,9.30
2018-06-05T20:43:37.459Z,9.43
2018-06-05T20:46:05.944Z,13.05
2018-06-05T20:48:34.405Z,13.10
2018-06-05T20:51:02.750Z,12.68
2018-06-05T20:53:31.147Z,15.45
2018-06-05T20:55:59.546Z,17.60
2018-06-05T20:58:28.033Z,20.57
2018-06-05T21:00:56.457Z,19.52
2018-06-05T21:03:24.889Z,17.92
2018-06-05T21:05:53.244Z,15.88
2018-06-05T21:08:21.636Z,20.75
2018-06-05T21:10:50.007Z,17.50
2018-06-05T21:13:18.454Z,14.03
2018-06-05T21:15:46.860Z,10.98
2018-06-05T21:18:15.259Z,11.08
2018-06-05T21:20:43.636Z,9.98
2018-06-05T21:23:12.039Z,8.38
2018-06-05T21:25:40.422Z,8.88
2018-06-05T21:28:08.806Z,10.08
2018-06-05T21:30:37.161Z,10.00
2018-06-05T21:33:06.050Z,9.75
2018-06-05T21:35:34.417Z,13.90
2018-06-05T21:38:02.529Z,20.92
2018-06-05T21:40:30.926Z,10.43
2018-06-05T21:42:59.317Z,8.53
2018-06-05T21:45:27.695Z,9.23
2018-06-05T21:47:56.091Z,10.10
2018-06-05T21:50:24.490Z,9.73
2018-06-05T21:52:52.919Z,9.58
2018-06-05T21:55:21.310Z,9.45
2018-06-05T21:57:49.687Z,9.43
2018-06-05T22:00:20.345Z,8.60
2018-06-05T22:02:48.782Z,8.50
2018-06-05T22:05:17.138Z,11.48
2018-06-05T22:07:45.520Z,9.43
2018-06-05T22:10:13.938Z,9.88
2018-06-05T22:12:42.307Z,9.75
2018-06-05T22:15:10.713Z,9.18
2018-06-05T22:17:39.080Z,9.95
2018-06-05T22:20:07.724Z,10.45
2018-06-05T22:22:36.085Z,11.10
2018-06-05T22:25:04.697Z,10.75
2018-06-05T22:27:33.043Z,11.28
2018-06-05T22:30:01.422Z,12.25
2018-06-05T22:32:31.043Z,11.30
2018-06-05T22:34:59.434Z,11.95
2018-06-05T22:37:27.799Z,10.28
2018-06-05T22:39:56.164Z,10.20
2018-06-05T22:42:24.511Z,10.10
2018-06-05T22:44:52.911Z,10.48
2018-06-05T22:47:21.376Z,11.25
2018-06-05T22:49:49.753Z,10.80
2018-06-05T22:52:18.183Z,10.00
2018-06-05T22:54:46.604Z,10.63
2018-06-05T22:57:14.986Z,9.55
2018-06-05T22:59:43.398Z,9.80
2018-06-05T23:02:11.913Z,12.15
2018-06-05T23:04:40.304Z,10.43
2018-06-05T23:07:08.661Z,10.03
2018-06-05T23:09:37.094Z,9.83
2018-06-05T23:12:05.522Z,11.28
2018-06-05T23:14:33.926Z,10.15
2018-06-05T23:17:02.309Z,10.28
2018-06-05T23:19:30.751Z,13.40
2018-06-05T23:21:59.314Z,11.50
2018-06-05T23:24:27.710Z,11.10
2018-06-05T23:26:56.128Z,11.50
2018-06-05T23:29:24.718Z,11.70
2018-06-05T23:31:52.817Z,11.97
2018-06-05T23:34:21.207Z,10.85
2018-06-05T23:36:49.574Z,10.70
2018-06-05T23:39:17.982Z,11.85
2018-06-05T23:41:46.346Z,10.93
2018-06-05T23:44:14.728Z,10.28
2018-06-05T23:46:43.098Z,11.40
2018-06-05T23:49:11.534Z,12.05
2018-06-05T23:51:39.911Z,11.90
2018-06-05T23:54:08.316Z,11.63
2018-06-05T23:56:36.727Z,11.57
2018-06-05T23:59:05.089Z,11.00
